Date,TemperatureHighF,TemperatureAvgF,TemperatureLowF,DewpointHighF,DewpointAvgF,DewpointLowF,HumidityHigh,HumidityAvg,HumidityLow,PressureMaxIn,PressureMinIn,WindSpeedMaxMPH,WindSpeedAvgMPH,GustSpeedMaxMPH,PrecipitationSumIn
2013-10-1,88.0,72.9,64.9,76.1,68.9,64.7,99,89,57,29.99,29.88,3,0,9,0.00
2013-10-2,84.9,73.0,64.8,77.3,70.9,64.5,99,93,73,30.01,29.90,4,1,9,0.00
2013-10-3,86.2,74.8,65.8,76.0,71.0,65.6,99,89,66,29.94,29.82,6,1,13,0.00
2013-10-4,88.2,75.8,68.2,76.7,71.2,67.9,99,87,63,29.92,29.84,4,1,15,0.00
2013-10-5,72.1,57.7,47.3,71.9,57.4,47.0,99,99,99,29.99,29.88,2,0,10,1.13
2013-10-6,63.3,52.7,41.9,51.3,46.9,41.6,99,82,56,29.96,29.88,4,0,8,0.01
2013-10-7,74.5,57.3,43.3,55.1,49.8,43.1,99,79,43,30.11,29.96,4,0,11,0.00
2013-10-8,74.5,59.4,45.7,59.5,52.2,45.4,99,80,48,30.14,30.04,5,1,10,0.00
2013-10-9,79.5,61.4,46.4,59.3,52.8,46.1,99,77,37,30.12,30.02,3,0,8,0.00
2013-10-10,80.6,64.3,51.3,64.7,57.6,51.0,99,82,49,30.09,29.92,4,1,9,0.00
2013-10-11,80.6,69.2,57.2,69.5,65.0,56.9,99,87,65,29.95,29.84,8,2,14,0.00
2013-10-12,73.6,62.5,51.1,67.3,60.0,50.8,99,92,68,30.17,29.88,7,1,14,0.41
2013-10-13,73.9,61.7,51.1,53.2,49.1,44.8,99,65,42,30.33,30.17,8,1,16,0.00
2013-10-14,65.8,60.2,54.3,63.4,55.0,46.0,99,83,66,30.25,29.96,6,1,16,0.02
2013-10-15,63.1,59.2,50.7,62.9,58.5,50.5,99,98,84,30.03,29.86,5,1,14,0.37
2013-10-16,64.2,52.0,39.7,51.2,47.4,39.5,99,86,56,30.08,29.97,4,0,8,0.00
2013-10-17,68.7,54.4,44.1,54.7,48.1,43.8,99,82,47,30.02,29.93,3,0,7,0.00
2013-10-18,63.3,48.6,39.7,52.8,45.6,39.5,99,91,64,30.05,29.96,5,1,13,0.19
2013-10-19,62.1,46.2,35.6,47.2,41.1,35.4,99,85,49,30.08,29.96,5,0,11,0.02
2013-10-20,72.3,53.3,38.7,50.5,43.4,37.1,99,75,32,29.98,29.84,5,1,13,0.00
2013-10-21,56.1,47.8,38.7,50.6,44.5,38.4,99,89,61,30.06,29.91,5,1,11,0.00
2013-10-22,69.8,50.4,35.8,51.6,43.0,35.5,99,79,47,30.05,29.87,4,1,11,0.00
2013-10-23,58.1,44.9,32.5,45.5,39.9,32.3,99,84,50,30.15,29.99,3,0,7,0.00
2013-10-24,55.0,43.8,34.5,42.4,36.1,29.1,99,77,41,30.38,30.05,8,1,14,0.00
2013-10-25,58.3,41.9,28.0,39.6,32.4,27.7,99,74,33,30.45,30.17,4,1,12,0.00
2013-10-26,64.0,53.1,39.0,60.1,49.2,35.2,99,87,77,30.17,29.78,2,1,6,0.00
2013-10-27,64.0,64.0,64.0,60.1,60.1,60.1,87,87,87,29.96,29.91,0,0,1,0.00